createdAt,value
2018-05-26T00:00:00.674Z,5.80
2018-05-26T00:02:28.118Z,6.00
2018-05-26T00:04:55.583Z,5.50
2018-05-26T00:07:23.023Z,5.90
2018-05-26T00:09:50.509Z,5.53
2018-05-26T00:12:17.959Z,5.93
2018-05-26T00:14:45.421Z,5.73
2018-05-26T00:17:12.875Z,5.33
2018-05-26T00:19:40.319Z,5.77
2018-05-26T00:22:07.799Z,6.67
2018-05-26T00:24:35.371Z,7.03
2018-05-26T00:27:02.875Z,6.73
2018-05-26T00:29:30.364Z,7.17
2018-05-26T00:31:57.812Z,7.20
2018-05-26T00:34:25.300Z,7.37
2018-05-26T00:36:52.783Z,6.93
2018-05-26T00:39:20.267Z,7.30
2018-05-26T00:41:47.745Z,6.43
2018-05-26T00:44:15.233Z,6.07
2018-05-26T00:46:42.711Z,6.17
2018-05-26T00:49:10.211Z,6.20
2018-05-26T00:51:37.691Z,5.83
2018-05-26T00:54:05.183Z,6.20
2018-05-26T00:56:32.620Z,6.67
2018-05-26T00:59:00.136Z,5.90
2018-05-26T01:01:27.623Z,6.03
2018-05-26T01:03:55.066Z,6.27
2018-05-26T01:06:22.529Z,6.53
2018-05-26T01:08:49.997Z,6.50
2018-05-26T01:11:17.617Z,6.73
2018-05-26T01:13:45.058Z,6.33
2018-05-26T01:16:12.525Z,7.30
2018-05-26T01:18:39.985Z,6.97
2018-05-26T01:21:07.440Z,6.67
2018-05-26T01:23:34.904Z,6.60
2018-05-26T01:26:02.416Z,6.30
2018-05-26T01:28:29.963Z,6.70
2018-05-26T01:30:57.421Z,6.67
2018-05-26T01:33:24.905Z,6.97
2018-05-26T01:35:52.373Z,7.23
2018-05-26T01:38:19.889Z,7.07
2018-05-26T01:40:47.326Z,6.63
2018-05-26T01:43:14.793Z,7.20
2018-05-26T01:45:42.406Z,7.30
2018-05-26T01:48:09.877Z,6.83
2018-05-26T01:50:37.354Z,6.80
2018-05-26T01:53:04.874Z,6.43
2018-05-26T01:55:32.326Z,7.10
2018-05-26T01:57:59.876Z,6.40
2018-05-26T02:00:27.348Z,7.20
2018-05-26T02:02:54.820Z,6.33
2018-05-26T02:05:22.320Z,7.10
2018-05-26T02:07:49.778Z,6.67
2018-05-26T02:10:17.235Z,6.57
2018-05-26T02:12:44.693Z,6.70
2018-05-26T02:15:12.176Z,7.13
2018-05-26T02:17:39.753Z,7.10
2018-05-26T02:20:07.218Z,7.03
2018-05-26T02:22:34.681Z,7.07
2018-05-26T02:25:02.182Z,7.00
2018-05-26T02:27:29.631Z,6.87
2018-05-26T02:29:57.135Z,7.10
2018-05-26T02:32:24.592Z,6.80
2018-05-26T02:34:52.118Z,7.30
2018-05-26T02:37:19.568Z,6.77
2018-05-26T02:39:47.038Z,7.73
2018-05-26T02:42:14.486Z,8.67
2018-05-26T02:44:41.966Z,8.23
2018-05-26T02:47:09.442Z,7.60
2018-05-26T02:49:36.911Z,7.43
2018-05-26T02:52:04.407Z,7.23
2018-05-26T02:54:32.598Z,7.63
2018-05-26T02:57:00.060Z,7.70
2018-05-26T02:59:27.525Z,7.87
2018-05-26T03:01:54.992Z,8.00
2018-05-26T04:02:50.487Z,8.07
2018-05-26T04:11:01.847Z,8.00
2018-05-26T04:13:29.302Z,8.73
2018-05-26T04:15:56.817Z,8.33
2018-05-26T04:18:24.329Z,8.00
2018-05-26T04:20:51.825Z,7.77
2018-05-26T04:23:19.403Z,8.10
2018-05-26T04:25:46.886Z,7.87
2018-05-26T04:31:05.075Z,7.90
2018-05-26T04:33:32.552Z,8.23
2018-05-26T04:36:00.141Z,8.87
2018-05-26T04:38:27.667Z,8.77
2018-05-26T04:40:55.168Z,9.47
2018-05-26T04:43:22.667Z,8.97
2018-05-26T04:45:50.134Z,8.60
2018-05-26T04:48:17.640Z,8.83
2018-05-26T04:50:45.113Z,8.50
2018-05-26T04:53:12.586Z,8.93
2018-05-26T04:55:40.072Z,9.30
2018-05-26T04:58:07.541Z,10.10
2018-05-26T05:00:35.037Z,9.87
2018-05-26T05:03:02.539Z,9.40
2018-05-26T05:05:30.006Z,9.07
2018-05-26T05:07:57.483Z,8.87
2018-05-26T05:10:24.985Z,9.00
2018-05-26T05:12:52.447Z,8.53
2018-05-26T05:15:19.915Z,9.00
2018-05-26T05:17:47.381Z,8.40
2018-05-26T05:25:56.282Z,8.47
2018-05-26T05:28:23.751Z,8.50
2018-05-26T05:30:51.209Z,8.37
2018-05-26T05:33:18.671Z,8.70
2018-05-26T05:35:46.127Z,8.07
2018-05-26T05:38:13.646Z,7.80
2018-05-26T05:40:41.299Z,8.63
2018-05-26T05:43:08.793Z,7.17
2018-05-26T05:45:37.157Z,7.80
2018-05-26T05:48:04.620Z,7.60
2018-05-26T05:50:32.120Z,7.33
2018-05-26T05:52:59.656Z,7.53
2018-05-26T05:55:27.125Z,7.67
2018-05-26T05:57:54.628Z,8.07
2018-05-26T06:00:22.118Z,7.93
2018-05-26T06:05:40.012Z,7.70
2018-05-26T06:08:07.501Z,9.17
2018-05-26T06:10:34.979Z,8.33
2018-05-26T06:13:02.451Z,8.47
2018-05-26T06:15:30.010Z,8.47
2018-05-26T06:17:57.484Z,8.03
2018-05-26T06:20:24.971Z,8.00
2018-05-26T06:22:52.451Z,8.47
2018-05-26T06:25:20.002Z,7.77
2018-05-26T06:27:47.484Z,8.00
2018-05-26T06:30:14.941Z,7.43
2018-05-26T06:32:42.529Z,8.27
2018-05-26T06:35:10.044Z,7.43
2018-05-26T06:37:37.558Z,7.90
2018-05-26T06:40:05.081Z,7.57
2018-05-26T06:42:32.558Z,7.23
2018-05-26T06:45:00.013Z,7.50
2018-05-26T06:50:17.840Z,7.43
2018-05-26T06:52:45.384Z,8.00
2018-05-26T06:55:12.843Z,7.30
2018-05-26T06:57:40.395Z,7.17
2018-05-26T07:00:07.874Z,7.20
2018-05-26T07:02:35.362Z,6.60
2018-05-26T07:05:02.855Z,6.50
2018-05-26T07:07:30.316Z,7.00
2018-05-26T07:09:57.787Z,6.60
2018-05-26T07:12:25.249Z,6.47
2018-05-26T07:14:52.695Z,6.53
2018-05-26T07:17:20.164Z,5.87
2018-05-26T07:19:47.716Z,6.03
2018-05-26T07:22:15.164Z,5.77
2018-05-26T07:24:42.870Z,5.33
2018-05-26T07:27:10.314Z,4.93
2018-05-26T07:29:37.767Z,5.77
2018-05-26T07:32:05.245Z,5.00
2018-05-26T07:34:32.717Z,6.50
2018-05-26T07:37:00.217Z,9.23
2018-05-26T07:39:27.723Z,5.50
2018-05-26T07:41:55.192Z,4.40
2018-05-26T07:44:22.689Z,5.40
2018-05-26T07:46:50.144Z,4.70
2018-05-26T07:49:17.610Z,4.23
2018-05-26T07:51:45.052Z,4.40
2018-05-26T07:54:12.510Z,4.53
2018-05-26T07:56:39.974Z,4.83
2018-05-26T07:59:07.450Z,4.07
2018-05-26T08:01:34.921Z,5.47
2018-05-26T08:04:02.389Z,4.37
2018-05-26T08:06:29.839Z,3.20
2018-05-26T08:08:57.374Z,3.77
2018-05-26T08:11:24.861Z,4.10
2018-05-26T08:13:52.308Z,4.30
2018-05-26T08:16:19.777Z,4.40
2018-05-26T08:18:47.248Z,4.07
2018-05-26T08:21:14.727Z,3.87
2018-05-26T08:23:42.212Z,4.70
2018-05-26T08:26:09.675Z,3.73
2018-05-26T08:28:37.157Z,3.57
2018-05-26T08:31:04.712Z,3.20
2018-05-26T08:33:32.167Z,3.50
2018-05-26T08:35:59.622Z,3.80
2018-05-26T08:38:27.100Z,3.40
2018-05-26T08:40:54.751Z,3.33
2018-05-26T08:43:22.268Z,3.47
2018-05-26T08:45:49.728Z,3.23
2018-05-26T08:48:17.206Z,3.30
2018-05-26T08:50:44.720Z,3.47
2018-05-26T08:53:12.185Z,3.07
2018-05-26T08:55:39.671Z,3.30
2018-05-26T08:58:07.127Z,3.53
2018-05-26T09:00:34.601Z,3.27
2018-05-26T09:03:02.053Z,3.10
2018-05-26T09:05:29.658Z,3.50
2018-05-26T09:07:57.137Z,3.23
2018-05-26T09:10:24.581Z,3.07
2018-05-26T09:12:52.067Z,3.17
2018-05-26T09:15:19.548Z,3.10
2018-05-26T09:17:47.036Z,3.12
2018-05-26T09:20:14.545Z,6.67
2018-05-26T09:22:42.047Z,5.47
2018-05-26T09:25:09.655Z,3.22
2018-05-26T09:27:37.060Z,3.20
2018-05-26T09:30:04.507Z,2.87
2018-05-26T09:32:31.985Z,3.08
2018-05-26T09:34:59.597Z,3.00
2018-05-26T09:37:27.105Z,2.78
2018-05-26T09:39:54.571Z,3.00
2018-05-26T09:42:22.050Z,2.60
2018-05-26T09:44:49.530Z,2.72
2018-05-26T09:47:16.992Z,3.10
2018-05-26T09:49:44.553Z,2.80
2018-05-26T09:52:12.016Z,2.80
2018-05-26T09:54:39.523Z,2.50
2018-05-26T09:57:06.969Z,2.62
2018-05-26T09:59:34.419Z,2.67
2018-05-26T10:02:01.918Z,2.40
2018-05-26T10:04:29.536Z,2.80
2018-05-26T10:06:57.869Z,3.75
2018-05-26T10:09:25.429Z,3.10
2018-05-26T10:11:52.902Z,3.05
2018-05-26T10:14:20.375Z,3.03
2018-05-26T10:16:47.900Z,2.65
2018-05-26T10:19:15.566Z,2.83
2018-05-26T10:21:43.125Z,2.95
2018-05-26T10:24:10.916Z,3.10
2018-05-26T10:26:38.380Z,3.00
2018-05-26T10:29:05.925Z,2.90
2018-05-26T10:31:33.399Z,2.90
2018-05-26T10:34:01.013Z,2.97
2018-05-26T10:36:28.609Z,2.95
2018-05-26T10:38:56.060Z,2.72
2018-05-26T10:41:23.516Z,2.60
2018-05-26T10:43:50.992Z,2.65
2018-05-26T10:46:25.407Z,2.70
2018-05-26T10:48:52.883Z,2.70
2018-05-26T10:51:20.378Z,2.75
2018-05-26T10:53:47.829Z,2.70
2018-05-26T10:56:15.329Z,2.85
2018-05-26T10:58:42.775Z,2.60
2018-05-26T11:01:10.374Z,2.67
2018-05-26T11:03:37.849Z,2.65
2018-05-26T11:06:05.300Z,2.72
2018-05-26T11:08:32.807Z,2.75
2018-05-26T11:11:00.283Z,2.80
2018-05-26T11:13:27.797Z,2.75
2018-05-26T11:15:55.236Z,2.85
2018-05-26T11:18:22.740Z,2.70
2018-05-26T11:20:50.211Z,2.90
2018-05-26T11:23:17.778Z,2.25
2018-05-26T11:25:45.219Z,3.40
2018-05-26T11:28:12.692Z,2.72
2018-05-26T11:30:40.198Z,2.72
2018-05-26T11:33:07.685Z,3.37
2018-05-26T11:35:35.143Z,3.03
2018-05-26T11:38:02.616Z,2.67
2018-05-26T11:40:30.105Z,2.47
2018-05-26T11:42:57.580Z,2.58
2018-05-26T11:45:25.060Z,2.85
2018-05-26T11:47:52.621Z,2.30
2018-05-26T11:50:20.115Z,2.60
2018-05-26T11:52:47.551Z,2.75
2018-05-26T11:55:15.029Z,2.55
2018-05-26T11:57:42.472Z,2.65
2018-05-26T12:00:09.962Z,2.40
2018-05-26T12:02:37.427Z,2.60
2018-05-26T12:05:04.913Z,2.47
2018-05-26T12:07:32.416Z,2.33
2018-05-26T12:10:00.243Z,2.10
2018-05-26T12:12:27.786Z,2.47
2018-05-26T12:14:55.312Z,2.60
2018-05-26T12:17:22.790Z,2.15
2018-05-26T12:19:50.312Z,1.85
2018-05-26T12:22:17.759Z,2.35
2018-05-26T12:24:45.216Z,2.17
2018-05-26T12:27:12.707Z,2.40
2018-05-26T12:29:40.148Z,2.08
2018-05-26T12:32:07.617Z,2.62
2018-05-26T12:34:36.246Z,2.00
2018-05-26T12:37:03.983Z,2.95
2018-05-26T12:39:31.445Z,2.33
2018-05-26T12:41:58.916Z,2.62
2018-05-26T12:44:26.360Z,2.70
2018-05-26T12:46:53.801Z,2.40
2018-05-26T12:49:21.257Z,2.28
2018-05-26T12:51:48.710Z,2.33
2018-05-26T12:54:16.193Z,1.90
2018-05-26T12:56:43.660Z,2.20
2018-05-26T12:59:11.109Z,2.30
2018-05-26T13:01:38.560Z,2.20
2018-05-26T13:04:06.044Z,2.15
2018-05-26T13:06:33.504Z,2.10
2018-05-26T13:09:01.003Z,2.30
2018-05-26T13:11:28.576Z,2.37
2018-05-26T13:13:56.186Z,3.92
2018-05-26T13:16:23.650Z,2.10
2018-05-26T13:18:51.121Z,2.08
2018-05-26T13:21:18.661Z,2.12
2018-05-26T13:23:46.145Z,2.10
2018-05-26T13:26:13.672Z,2.08
2018-05-26T13:28:41.249Z,2.08
2018-05-26T13:31:08.735Z,2.30
2018-05-26T13:33:36.365Z,2.20
2018-05-26T13:36:03.917Z,2.17
2018-05-26T13:38:31.455Z,1.75
2018-05-26T13:40:58.917Z,1.87
2018-05-26T13:43:26.415Z,1.92
2018-05-26T13:45:53.939Z,2.05
2018-05-26T13:48:21.447Z,2.03
2018-05-26T13:50:49.014Z,2.08
2018-05-26T13:53:16.534Z,2.00
2018-05-26T13:55:43.945Z,1.90
2018-05-26T13:58:11.435Z,2.00
2018-05-26T14:00:38.978Z,2.10
2018-05-26T14:03:06.445Z,13.77
2018-05-26T14:05:33.922Z,1.98
2018-05-26T14:08:01.383Z,2.47
2018-05-26T14:10:28.916Z,2.33
2018-05-26T14:12:56.358Z,2.87
2018-05-26T14:15:23.816Z,2.12
2018-05-26T14:17:51.279Z,2.30
2018-05-26T14:20:18.775Z,1.98
2018-05-26T14:22:46.254Z,2.10
2018-05-26T14:25:13.732Z,2.10
2018-05-26T14:27:41.207Z,2.17
2018-05-26T14:30:08.674Z,2.80
2018-05-26T14:32:36.201Z,2.50
2018-05-26T14:35:03.646Z,3.40
2018-05-26T14:37:31.111Z,2.78
2018-05-26T14:39:58.601Z,2.85
2018-05-26T14:42:26.055Z,1.98
2018-05-26T14:44:53.504Z,1.92
2018-05-26T14:47:20.954Z,2.20
2018-05-26T14:49:48.496Z,5.32
2018-05-26T14:52:15.950Z,2.33
2018-05-26T14:54:43.455Z,2.00
2018-05-26T14:57:10.935Z,2.15
2018-05-26T14:59:38.417Z,2.37
2018-05-26T15:02:05.886Z,2.50
2018-05-26T15:04:33.331Z,2.05
2018-05-26T15:07:00.806Z,1.77
2018-05-26T15:09:28.260Z,1.87
2018-05-26T15:11:55.706Z,2.12
2018-05-26T15:14:23.170Z,1.80
2018-05-26T15:16:50.633Z,1.80
2018-05-26T15:19:18.147Z,1.90
2018-05-26T15:21:45.618Z,1.87
2018-05-26T15:24:13.143Z,2.22
2018-05-26T15:26:41.431Z,2.08
2018-05-26T15:29:08.935Z,2.20
2018-05-26T15:31:36.384Z,2.10
2018-05-26T15:34:03.856Z,2.62
2018-05-26T15:36:31.335Z,2.22
2018-05-26T15:38:58.796Z,2.50
2018-05-26T15:41:26.285Z,2.00
2018-05-26T15:43:53.752Z,2.33
2018-05-26T15:46:21.210Z,2.10
2018-05-26T15:48:48.698Z,1.85
2018-05-26T15:51:16.167Z,2.25
2018-05-26T15:53:43.617Z,2.15
2018-05-26T15:56:11.095Z,2.30
2018-05-26T15:58:38.567Z,2.40
2018-05-26T16:01:06.016Z,2.40
2018-05-26T16:03:33.461Z,2.40
2018-05-26T16:06:01.040Z,2.53
2018-05-26T16:08:28.503Z,1.95
2018-05-26T16:10:55.985Z,2.10
2018-05-26T16:13:23.445Z,2.20
2018-05-26T16:15:50.946Z,2.10
2018-05-26T16:18:18.447Z,2.35
2018-05-26T16:20:45.988Z,3.65
2018-05-26T16:23:13.435Z,2.20
2018-05-26T16:25:40.923Z,2.22
2018-05-26T16:28:08.394Z,2.00
2018-05-26T16:30:35.984Z,2.40
2018-05-26T16:33:03.478Z,2.10
2018-05-26T16:35:30.940Z,2.12
2018-05-26T16:37:58.494Z,1.95
2018-05-26T16:40:25.957Z,2.40
2018-05-26T16:42:53.544Z,2.53
2018-05-26T16:45:21.050Z,2.58
2018-05-26T16:47:48.520Z,2.42
2018-05-26T16:50:15.983Z,2.37
2018-05-26T16:52:43.459Z,2.53
2018-05-26T16:55:10.987Z,9.68
2018-05-26T16:57:38.460Z,3.00
2018-05-26T17:00:05.911Z,2.90
2018-05-26T17:02:33.395Z,3.20
2018-05-26T17:05:00.866Z,3.33
2018-05-26T17:07:28.713Z,3.42
2018-05-26T17:09:56.170Z,3.00
2018-05-26T17:12:23.634Z,2.87
2018-05-26T17:14:51.093Z,3.20
2018-05-26T17:17:18.557Z,3.30
2018-05-26T17:19:46.026Z,3.95
2018-05-26T17:22:13.475Z,3.78
2018-05-26T17:24:40.940Z,4.12
2018-05-26T17:27:08.420Z,3.70
2018-05-26T17:29:35.878Z,4.20
2018-05-26T17:32:03.333Z,3.85
2018-05-26T17:34:30.818Z,3.58
2018-05-26T17:36:58.283Z,4.00
2018-05-26T17:39:25.768Z,3.60
2018-05-26T17:41:54.066Z,3.78
2018-05-26T17:44:21.592Z,3.97
2018-05-26T17:46:49.103Z,4.28
2018-05-26T17:49:16.592Z,3.60
2018-05-26T17:51:44.064Z,3.80
2018-05-26T17:54:11.548Z,3.83
2018-05-26T17:56:40.015Z,4.30
2018-05-26T17:59:07.528Z,3.70
2018-05-26T18:01:35.008Z,4.95
2018-05-26T18:04:02.468Z,4.18
2018-05-26T18:06:30.085Z,4.18
2018-05-26T18:08:57.582Z,4.40
2018-05-26T18:11:25.050Z,4.30
2018-05-26T18:13:52.608Z,4.53
2018-05-26T18:16:20.116Z,4.10
2018-05-26T18:18:47.563Z,4.32
2018-05-26T18:21:15.019Z,4.22
2018-05-26T18:23:42.470Z,4.50
2018-05-26T18:26:10.011Z,4.47
2018-05-26T18:28:37.510Z,4.50
2018-05-26T18:31:04.996Z,4.55
2018-05-26T18:33:32.492Z,4.32
2018-05-26T18:35:59.943Z,4.55
2018-05-26T18:38:27.780Z,4.47
2018-05-26T18:40:55.242Z,5.07
2018-05-26T18:43:22.703Z,5.70
2018-05-26T18:45:50.197Z,4.82
2018-05-26T18:48:17.644Z,5.05
2018-05-26T18:50:45.118Z,4.80
2018-05-26T18:53:12.585Z,5.72
2018-05-26T18:55:40.096Z,5.93
2018-05-26T18:58:07.554Z,5.60
2018-05-26T19:00:35.042Z,5.85
2018-05-26T19:03:02.532Z,5.72
2018-05-26T19:05:29.999Z,5.05
2018-05-26T19:07:57.490Z,5.80
2018-05-26T19:10:25.042Z,4.97
2018-05-26T19:12:52.505Z,5.15
2018-05-26T19:15:20.082Z,6.20
2018-05-26T19:17:47.590Z,5.50
2018-05-26T19:20:15.080Z,5.10
2018-05-26T19:22:42.615Z,5.47
2018-05-26T19:25:10.098Z,5.63
2018-05-26T19:27:37.698Z,5.93
2018-05-26T19:30:05.161Z,6.20
2018-05-26T19:32:32.616Z,5.90
2018-05-26T19:35:00.139Z,5.63
2018-05-26T19:37:27.649Z,5.67
2018-05-26T19:39:55.151Z,5.93
2018-05-26T19:42:22.730Z,5.77
2018-05-26T19:44:50.455Z,5.70
2018-05-26T19:47:17.896Z,6.50
2018-05-26T19:52:36.061Z,5.57
2018-05-26T20:03:37.891Z,6.47
2018-05-26T20:06:05.420Z,6.00
2018-05-26T20:08:32.923Z,6.73
2018-05-26T20:11:00.389Z,6.53
2018-05-26T20:13:27.953Z,7.33
2018-05-26T20:15:55.419Z,7.00
2018-05-26T20:18:22.894Z,7.07
2018-05-26T20:20:50.369Z,7.30
2018-05-26T20:23:17.858Z,6.30
2018-05-26T20:25:45.408Z,7.37
2018-05-26T20:28:12.911Z,7.53
2018-05-26T20:30:41.307Z,7.00
2018-05-26T20:33:08.813Z,6.90
2018-05-26T20:35:36.382Z,7.17
2018-05-26T20:38:06.852Z,7.30
2018-05-26T20:40:34.453Z,7.37
2018-05-26T20:43:02.202Z,7.33
2018-05-26T20:45:29.685Z,8.60
2018-05-26T20:47:57.293Z,7.90
2018-05-26T20:50:24.761Z,7.90
2018-05-26T20:52:52.252Z,8.70
2018-05-26T20:55:19.731Z,9.30
2018-05-26T20:57:47.195Z,8.57
2018-05-26T21:00:17.210Z,7.53
2018-05-26T21:02:44.672Z,7.80
2018-05-26T21:05:12.418Z,7.67
2018-05-26T21:07:40.082Z,7.67
2018-05-26T21:10:07.591Z,8.13
2018-05-26T21:12:35.067Z,8.60
2018-05-26T21:15:02.607Z,8.77
2018-05-26T21:17:30.081Z,8.23
2018-05-26T21:19:57.558Z,8.60
2018-05-26T21:22:25.034Z,8.47
2018-05-26T21:27:42.986Z,7.67
2018-05-26T21:30:10.545Z,8.53
2018-05-26T21:32:38.114Z,9.30
2018-05-26T21:35:06.601Z,9.17
2018-05-26T21:37:34.092Z,10.17
2018-05-26T21:40:01.593Z,9.83
2018-05-26T21:42:29.171Z,9.93
2018-05-26T21:44:56.643Z,9.73
2018-05-26T21:47:24.091Z,9.87
2018-05-26T21:49:51.577Z,9.97
2018-05-26T21:52:19.038Z,9.93
2018-05-26T21:54:46.524Z,10.13
2018-05-26T21:57:13.986Z,9.80
2018-05-26T21:59:41.446Z,9.50
2018-05-26T22:02:09.244Z,8.93
2018-05-26T22:04:36.788Z,9.20
2018-05-26T22:07:06.356Z,9.03
2018-05-26T22:09:34.784Z,9.00
2018-05-26T22:12:03.098Z,9.30
2018-05-26T22:14:32.495Z,8.63
2018-05-26T22:17:01.141Z,9.20
2018-05-26T22:19:30.091Z,9.97
2018-05-26T22:21:58.722Z,9.90
2018-05-26T22:24:27.323Z,9.47
2018-05-26T22:26:55.278Z,10.00
2018-05-26T22:29:23.548Z,9.57
2018-05-26T22:31:52.400Z,9.33
2018-05-26T22:34:19.876Z,9.30
2018-05-26T22:36:48.142Z,9.07
2018-05-26T22:39:15.705Z,9.10
2018-05-26T22:41:43.580Z,9.67
2018-05-26T22:44:11.154Z,10.27
2018-05-26T22:46:39.061Z,9.30
2018-05-26T22:49:08.160Z,9.70
2018-05-26T22:51:35.840Z,9.73
2018-05-26T22:54:03.325Z,9.37
2018-05-26T22:56:31.034Z,9.23
2018-05-26T22:58:58.561Z,8.53
2018-05-26T23:01:26.472Z,9.33
2018-05-26T23:03:54.876Z,10.10
2018-05-26T23:06:22.503Z,9.00
2018-05-26T23:08:49.985Z,9.47
2018-05-26T23:11:17.458Z,8.47
2018-05-26T23:13:45.023Z,9.07
2018-05-26T23:16:12.566Z,9.50
2018-05-26T23:18:40.186Z,9.70
2018-05-26T23:21:07.777Z,9.27
2018-05-26T23:23:36.373Z,8.97
2018-05-26T23:26:06.074Z,8.47
2018-05-26T23:28:34.336Z,8.60
2018-05-26T23:31:04.318Z,8.40
2018-05-26T23:33:33.451Z,8.90
2018-05-26T23:36:01.414Z,9.03
2018-05-26T23:38:31.130Z,9.30
2018-05-26T23:40:59.384Z,9.60
2018-05-26T23:43:28.010Z,8.87
2018-05-26T23:45:57.309Z,9.63
2018-05-26T23:48:25.598Z,9.43
2018-05-26T23:50:53.220Z,10.37
2018-05-26T23:53:22.024Z,10.73
2018-05-26T23:55:49.982Z,10.70
2018-05-26T23:58:17.729Z,10.53
